Weather at Amsterdam Airport Schiphol

Public forecast

Using degrees Celsius for public forecast. Weather courtesy of forecast.io.

Current aviation weather report (METAR) for Amsterdam Airport Schiphol

Retrieved 2021/07/29 05:25 UTC (16 minutes ago):

EHAM 290525Z 22012KT 9999 -SHRA FEW023CB SCT025 14/11 Q1007 NOSIG

Aviation forecast (TAF) for Amsterdam Airport Schiphol

Retrieved 2021-07-29 00:27 UTC (5 hours ago):

TAF TAF EHAM 282302Z 2900/3006 22015KT 9999 SCT030 TEMPO 2900/2903 24020G30KT 5000 SHRA SCT020CB BKN030 BECMG 2906/2908 25020G30KT BECMG 2916/2919 23014KT BECMG 3000/3003 20007KT